sensor_id;sensor_type;location;lat;lon;timestamp;P1;durP1;ratioP1;P2;durP2;ratioP2
75739;SDS011;64357;51.344;6.550;2023-06-26T00:00:35;8.18;;;4.70;;
75739;SDS011;64357;51.344;6.550;2023-06-26T00:03:02;8.38;;;4.40;;
75739;SDS011;64357;51.344;6.550;2023-06-26T00:05:27;8.55;;;4.40;;
75739;SDS011;64357;51.344;6.550;2023-06-26T00:07:53;9.60;;;4.85;;
75739;SDS011;64357;51.344;6.550;2023-06-26T00:10:18;10.67;;;5.10;;
75739;SDS011;64357;51.344;6.550;2023-06-26T00:12:43;11.33;;;4.50;;
75739;SDS011;64357;51.344;6.550;2023-06-26T00:15:09;9.33;;;4.77;;
75739;SDS011;64357;51.344;6.550;2023-06-26T00:17:34;9.70;;;5.00;;
75739;SDS011;64357;51.344;6.550;2023-06-26T00:20:02;10.80;;;4.80;;
75739;SDS011;64357;51.344;6.550;2023-06-26T00:22:28;8.27;;;4.70;;
75739;SDS011;64357;51.344;6.550;2023-06-26T00:24:53;9.27;;;4.43;;
75739;SDS011;64357;51.344;6.550;2023-06-26T00:27:19;9.27;;;5.17;;
75739;SDS011;64357;51.344;6.550;2023-06-26T00:29:46;9.57;;;5.45;;
75739;SDS011;64357;51.344;6.550;2023-06-26T00:32:17;8.98;;;5.72;;
75739;SDS011;64357;51.344;6.550;2023-06-26T00:34:42;9.15;;;4.95;;
75739;SDS011;64357;51.344;6.550;2023-06-26T00:37:11;9.85;;;5.00;;
75739;SDS011;64357;51.344;6.550;2023-06-26T00:39:37;11.97;;;6.23;;
75739;SDS011;64357;51.344;6.550;2023-06-26T00:42:02;9.00;;;4.43;;
75739;SDS011;64357;51.344;6.550;2023-06-26T00:44:28;11.77;;;5.28;;
75739;SDS011;64357;51.344;6.550;2023-06-26T00:46:55;8.48;;;4.68;;
75739;SDS011;64357;51.344;6.550;2023-06-26T00:49:21;11.48;;;4.72;;
75739;SDS011;64357;51.344;6.550;2023-06-26T00:51:47;10.82;;;5.50;;
75739;SDS011;64357;51.344;6.550;2023-06-26T00:54:12;9.63;;;5.32;;
75739;SDS011;64357;51.344;6.550;2023-06-26T00:56:41;8.88;;;4.78;;
75739;SDS011;64357;51.344;6.550;2023-06-26T00:59:09;9.13;;;4.60;;
75739;SDS011;64357;51.344;6.550;2023-06-26T01:01:34;8.02;;;4.30;;
75739;SDS011;64357;51.344;6.550;2023-06-26T01:03:59;10.10;;;4.40;;
75739;SDS011;64357;51.344;6.550;2023-06-26T01:06:25;10.93;;;4.80;;
75739;SDS011;64357;51.344;6.550;2023-06-26T01:08:57;8.88;;;4.57;;
75739;SDS011;64357;51.344;6.550;2023-06-26T01:11:24;9.80;;;4.30;;
75739;SDS011;64357;51.344;6.550;2023-06-26T01:13:51;11.05;;;5.50;;
75739;SDS011;64357;51.344;6.550;2023-06-26T01:16:18;10.48;;;4.70;;
75739;SDS011;64357;51.344;6.550;2023-06-26T01:18:45;10.20;;;5.03;;
75739;SDS011;64357;51.344;6.550;2023-06-26T01:21:11;7.55;;;4.15;;
75739;SDS011;64357;51.344;6.550;2023-06-26T01:26:32;9.70;;;4.57;;
75739;SDS011;64357;51.344;6.550;2023-06-26T01:29:02;8.95;;;4.97;;
75739;SDS011;64357;51.344;6.550;2023-06-26T01:31:30;10.30;;;5.00;;
75739;SDS011;64357;51.344;6.550;2023-06-26T01:33:58;9.77;;;4.88;;
75739;SDS011;64357;51.344;6.550;2023-06-26T01:36:25;9.45;;;4.68;;
75739;SDS011;64357;51.344;6.550;2023-06-26T01:38:51;9.93;;;5.00;;
75739;SDS011;64357;51.344;6.550;2023-06-26T01:41:17;12.45;;;5.25;;
75739;SDS011;64357;51.344;6.550;2023-06-26T01:46:29;7.50;;;4.13;;
75739;SDS011;64357;51.344;6.550;2023-06-26T01:49:03;9.55;;;4.60;;
75739;SDS011;64357;51.344;6.550;2023-06-26T01:51:45;9.82;;;4.72;;
75739;SDS011;64357;51.344;6.550;2023-06-26T01:54:33;12.95;;;4.78;;
75739;SDS011;64357;51.344;6.550;2023-06-26T01:57:14;9.68;;;4.57;;
75739;SDS011;64357;51.344;6.550;2023-06-26T01:59:43;8.38;;;4.22;;
75739;SDS011;64357;51.344;6.550;2023-06-26T02:02:11;8.88;;;4.60;;
75739;SDS011;64357;51.344;6.550;2023-06-26T02:04:37;8.02;;;4.35;;
75739;SDS011;64357;51.344;6.550;2023-06-26T02:07:03;8.27;;;4.43;;
75739;SDS011;64357;51.344;6.550;2023-06-26T02:09:28;9.48;;;4.75;;
75739;SDS011;64357;51.344;6.550;2023-06-26T02:11:54;10.48;;;4.78;;
75739;SDS011;64357;51.344;6.550;2023-06-26T02:14:19;10.52;;;5.13;;
75739;SDS011;64357;51.344;6.550;2023-06-26T02:16:45;7.73;;;4.43;;
75739;SDS011;64357;51.344;6.550;2023-06-26T02:19:12;9.32;;;4.28;;
75739;SDS011;64357;51.344;6.550;2023-06-26T02:21:46;9.07;;;4.78;;
75739;SDS011;64357;51.344;6.550;2023-06-26T02:24:14;8.30;;;4.65;;
75739;SDS011;64357;51.344;6.550;2023-06-26T02:26:40;9.93;;;4.78;;
75739;SDS011;64357;51.344;6.550;2023-06-26T02:29:05;8.88;;;4.82;;
75739;SDS011;64357;51.344;6.550;2023-06-26T02:31:33;8.82;;;4.63;;
75739;SDS011;64357;51.344;6.550;2023-06-26T02:34:01;9.82;;;4.25;;
75739;SDS011;64357;51.344;6.550;2023-06-26T02:36:26;9.33;;;4.90;;
75739;SDS011;64357;51.344;6.550;2023-06-26T02:38:56;8.85;;;4.47;;
75739;SDS011;64357;51.344;6.550;2023-06-26T02:41:21;9.83;;;4.90;;
75739;SDS011;64357;51.344;6.550;2023-06-26T02:43:47;10.60;;;4.40;;
75739;SDS011;64357;51.344;6.550;2023-06-26T02:46:12;10.05;;;4.60;;
75739;SDS011;64357;51.344;6.550;2023-06-26T02:48:37;9.30;;;4.50;;
75739;SDS011;64357;51.344;6.550;2023-06-26T02:51:03;9.57;;;4.43;;
75739;SDS011;64357;51.344;6.550;2023-06-26T02:53:28;10.23;;;4.67;;
75739;SDS011;64357;51.344;6.550;2023-06-26T02:55:53;9.30;;;4.87;;
75739;SDS011;64357;51.344;6.550;2023-06-26T02:58:21;9.63;;;4.05;;
75739;SDS011;64357;51.344;6.550;2023-06-26T03:00:46;8.33;;;4.83;;
75739;SDS011;64357;51.344;6.550;2023-06-26T03:03:14;8.02;;;4.30;;
75739;SDS011;64357;51.344;6.550;2023-06-26T03:05:40;9.27;;;4.25;;
75739;SDS011;64357;51.344;6.550;2023-06-26T03:08:07;8.88;;;4.90;;
75739;SDS011;64357;51.344;6.550;2023-06-26T03:10:33;8.27;;;4.63;;
75739;SDS011;64357;51.344;6.550;2023-06-26T03:12:58;9.05;;;4.88;;
75739;SDS011;64357;51.344;6.550;2023-06-26T03:15:28;8.80;;;4.53;;
75739;SDS011;64357;51.344;6.550;2023-06-26T03:17:56;9.13;;;4.57;;
75739;SDS011;64357;51.344;6.550;2023-06-26T03:20:21;10.53;;;4.47;;
75739;SDS011;64357;51.344;6.550;2023-06-26T03:22:47;9.90;;;4.23;;
75739;SDS011;64357;51.344;6.550;2023-06-26T03:25:12;10.30;;;4.50;;
75739;SDS011;64357;51.344;6.550;2023-06-26T03:27:37;9.13;;;4.65;;
75739;SDS011;64357;51.344;6.550;2023-06-26T03:30:04;9.27;;;4.70;;
75739;SDS011;64357;51.344;6.550;2023-06-26T03:32:30;9.50;;;4.70;;
75739;SDS011;64357;51.344;6.550;2023-06-26T03:34:55;10.85;;;5.05;;
75739;SDS011;64357;51.344;6.550;2023-06-26T03:37:23;10.88;;;5.60;;
75739;SDS011;64357;51.344;6.550;2023-06-26T03:39:48;9.40;;;5.22;;
75739;SDS011;64357;51.344;6.550;2023-06-26T03:42:13;10.90;;;5.55;;
75739;SDS011;64357;51.344;6.550;2023-06-26T03:44:39;9.40;;;4.78;;
75739;SDS011;64357;51.344;6.550;2023-06-26T03:47:04;8.33;;;4.47;;
75739;SDS011;64357;51.344;6.550;2023-06-26T03:49:29;9.93;;;5.28;;
75739;SDS011;64357;51.344;6.550;2023-06-26T03:51:55;12.15;;;6.13;;
75739;SDS011;64357;51.344;6.550;2023-06-26T03:54:23;10.98;;;5.65;;
75739;SDS011;64357;51.344;6.550;2023-06-26T03:56:55;11.82;;;6.03;;
75739;SDS011;64357;51.344;6.550;2023-06-26T03:59:21;9.90;;;4.90;;
75739;SDS011;64357;51.344;6.550;2023-06-26T04:01:46;11.13;;;5.15;;
75739;SDS011;64357;51.344;6.550;2023-06-26T04:04:15;10.85;;;5.13;;
75739;SDS011;64357;51.344;6.550;2023-06-26T04:06:58;10.45;;;5.75;;
75739;SDS011;64357;51.344;6.550;2023-06-26T04:09:51;12.30;;;5.60;;
75739;SDS011;64357;51.344;6.550;2023-06-26T04:12:28;9.80;;;5.47;;
75739;SDS011;64357;51.344;6.550;2023-06-26T04:15:09;8.75;;;4.45;;
75739;SDS011;64357;51.344;6.550;2023-06-26T04:17:34;11.35;;;4.15;;
75739;SDS011;64357;51.344;6.550;2023-06-26T04:20:02;7.45;;;3.47;;
75739;SDS011;64357;51.344;6.550;2023-06-26T04:22:44;8.65;;;4.03;;
75739;SDS011;64357;51.344;6.550;2023-06-26T04:25:41;8.40;;;3.85;;
75739;SDS011;64357;51.344;6.550;2023-06-26T04:28:19;8.88;;;4.38;;
75739;SDS011;64357;51.344;6.550;2023-06-26T04:33:29;11.60;;;4.03;;
75739;SDS011;64357;51.344;6.550;2023-06-26T04:35:55;9.82;;;3.80;;
75739;SDS011;64357;51.344;6.550;2023-06-26T04:38:23;7.45;;;3.45;;
75739;SDS011;64357;51.344;6.550;2023-06-26T04:40:51;7.50;;;2.95;;
75739;SDS011;64357;51.344;6.550;2023-06-26T04:43:18;8.80;;;3.72;;
75739;SDS011;64357;51.344;6.550;2023-06-26T04:45:46;9.25;;;3.78;;
75739;SDS011;64357;51.344;6.550;2023-06-26T04:48:14;11.05;;;3.78;;
75739;SDS011;64357;51.344;6.550;2023-06-26T04:50:39;8.43;;;3.58;;
75739;SDS011;64357;51.344;6.550;2023-06-26T04:53:05;8.80;;;3.63;;
75739;SDS011;64357;51.344;6.550;2023-06-26T04:55:31;8.88;;;2.90;;
75739;SDS011;64357;51.344;6.550;2023-06-26T04:57:56;8.75;;;3.40;;
75739;SDS011;64357;51.344;6.550;2023-06-26T05:00:24;6.67;;;2.50;;
75739;SDS011;64357;51.344;6.550;2023-06-26T05:02:50;7.80;;;3.22;;
75739;SDS011;64357;51.344;6.550;2023-06-26T05:05:25;10.55;;;3.40;;
75739;SDS011;64357;51.344;6.550;2023-06-26T05:07:52;6.68;;;2.65;;
75739;SDS011;64357;51.344;6.550;2023-06-26T05:10:17;6.72;;;3.03;;
75739;SDS011;64357;51.344;6.550;2023-06-26T05:12:43;9.43;;;3.27;;
75739;SDS011;64357;51.344;6.550;2023-06-26T05:15:08;6.78;;;3.20;;
75739;SDS011;64357;51.344;6.550;2023-06-26T05:17:34;9.73;;;3.10;;
75739;SDS011;64357;51.344;6.550;2023-06-26T05:19:59;9.80;;;3.85;;
75739;SDS011;64357;51.344;6.550;2023-06-26T05:22:25;7.43;;;2.93;;
75739;SDS011;64357;51.344;6.550;2023-06-26T05:24:51;9.73;;;3.00;;
75739;SDS011;64357;51.344;6.550;2023-06-26T05:27:24;8.30;;;3.08;;
75739;SDS011;64357;51.344;6.550;2023-06-26T05:29:50;9.18;;;2.95;;
75739;SDS011;64357;51.344;6.550;2023-06-26T05:32:16;7.35;;;2.83;;
75739;SDS011;64357;51.344;6.550;2023-06-26T05:34:48;8.82;;;3.42;;
75739;SDS011;64357;51.344;6.550;2023-06-26T05:37:20;7.60;;;3.03;;
75739;SDS011;64357;51.344;6.550;2023-06-26T05:39:47;8.10;;;3.42;;
75739;SDS011;64357;51.344;6.550;2023-06-26T05:42:13;7.32;;;2.97;;
75739;SDS011;64357;51.344;6.550;2023-06-26T05:44:39;6.55;;;2.67;;
75739;SDS011;64357;51.344;6.550;2023-06-26T05:47:04;7.57;;;2.30;;
75739;SDS011;64357;51.344;6.550;2023-06-26T05:49:30;7.97;;;3.22;;
75739;SDS011;64357;51.344;6.550;2023-06-26T05:51:55;7.22;;;3.05;;
75739;SDS011;64357;51.344;6.550;2023-06-26T05:54:23;7.75;;;2.90;;
75739;SDS011;64357;51.344;6.550;2023-06-26T05:56:56;5.55;;;2.78;;
75739;SDS011;64357;51.344;6.550;2023-06-26T05:59:24;11.07;;;4.43;;
75739;SDS011;64357;51.344;6.550;2023-06-26T06:01:58;7.55;;;3.30;;
75739;SDS011;64357;51.344;6.550;2023-06-26T06:04:23;6.93;;;2.90;;
75739;SDS011;64357;51.344;6.550;2023-06-26T06:06:49;8.98;;;3.22;;
75739;SDS011;64357;51.344;6.550;2023-06-26T06:09:17;7.72;;;3.08;;
75739;SDS011;64357;51.344;6.550;2023-06-26T06:11:42;7.25;;;2.58;;
75739;SDS011;64357;51.344;6.550;2023-06-26T06:14:11;7.15;;;2.97;;
75739;SDS011;64357;51.344;6.550;2023-06-26T06:16:38;7.25;;;2.78;;
75739;SDS011;64357;51.344;6.550;2023-06-26T06:19:04;9.05;;;2.97;;
75739;SDS011;64357;51.344;6.550;2023-06-26T06:21:31;8.88;;;3.15;;
75739;SDS011;64357;51.344;6.550;2023-06-26T06:24:00;9.00;;;2.92;;
75739;SDS011;64357;51.344;6.550;2023-06-26T06:26:32;8.25;;;3.13;;
75739;SDS011;64357;51.344;6.550;2023-06-26T06:29:29;8.23;;;3.53;;
75739;SDS011;64357;51.344;6.550;2023-06-26T06:32:23;6.47;;;2.20;;
75739;SDS011;64357;51.344;6.550;2023-06-26T06:34:50;11.52;;;2.70;;
75739;SDS011;64357;51.344;6.550;2023-06-26T06:37:15;8.60;;;3.05;;
75739;SDS011;64357;51.344;6.550;2023-06-26T06:39:41;10.35;;;2.58;;
75739;SDS011;64357;51.344;6.550;2023-06-26T06:42:06;10.55;;;2.70;;
75739;SDS011;64357;51.344;6.550;2023-06-26T06:44:33;7.68;;;2.65;;
75739;SDS011;64357;51.344;6.550;2023-06-26T06:46:58;6.68;;;2.78;;
75739;SDS011;64357;51.344;6.550;2023-06-26T06:49:26;6.55;;;2.72;;
75739;SDS011;64357;51.344;6.550;2023-06-26T06:51:54;8.57;;;3.10;;
75739;SDS011;64357;51.344;6.550;2023-06-26T06:54:19;12.88;;;3.75;;
75739;SDS011;64357;51.344;6.550;2023-06-26T06:56:45;6.10;;;2.55;;
75739;SDS011;64357;51.344;6.550;2023-06-26T06:59:10;8.18;;;3.33;;
75739;SDS011;64357;51.344;6.550;2023-06-26T07:01:36;10.63;;;3.40;;
75739;SDS011;64357;51.344;6.550;2023-06-26T07:04:04;12.73;;;3.20;;
75739;SDS011;64357;51.344;6.550;2023-06-26T07:06:30;8.83;;;3.43;;
75739;SDS011;64357;51.344;6.550;2023-06-26T07:08:58;9.55;;;3.25;;
75739;SDS011;64357;51.344;6.550;2023-06-26T07:11:26;11.80;;;3.75;;
75739;SDS011;64357;51.344;6.550;2023-06-26T07:16:22;11.88;;;3.15;;
75739;SDS011;64357;51.344;6.550;2023-06-26T07:18:50;7.53;;;2.53;;
75739;SDS011;64357;51.344;6.550;2023-06-26T07:21:18;9.75;;;3.13;;
75739;SDS011;64357;51.344;6.550;2023-06-26T07:23:43;8.27;;;3.42;;
75739;SDS011;64357;51.344;6.550;2023-06-26T07:26:13;6.73;;;2.83;;
75739;SDS011;64357;51.344;6.550;2023-06-26T07:28:39;12.57;;;3.33;;
75739;SDS011;64357;51.344;6.550;2023-06-26T07:31:05;9.18;;;2.67;;
75739;SDS011;64357;51.344;6.550;2023-06-26T07:33:33;7.80;;;2.47;;
75739;SDS011;64357;51.344;6.550;2023-06-26T07:35:58;11.77;;;3.30;;
75739;SDS011;64357;51.344;6.550;2023-06-26T07:38:26;12.07;;;2.95;;
75739;SDS011;64357;51.344;6.550;2023-06-26T07:40:54;11.57;;;3.05;;
75739;SDS011;64357;51.344;6.550;2023-06-26T07:43:19;10.13;;;2.80;;
75739;SDS011;64357;51.344;6.550;2023-06-26T07:45:48;5.60;;;2.60;;
75739;SDS011;64357;51.344;6.550;2023-06-26T07:48:13;9.68;;;2.90;;
75739;SDS011;64357;51.344;6.550;2023-06-26T07:50:38;13.13;;;3.03;;
75739;SDS011;64357;51.344;6.550;2023-06-26T07:53:04;9.65;;;3.05;;
75739;SDS011;64357;51.344;6.550;2023-06-26T07:55:30;10.07;;;2.53;;
75739;SDS011;64357;51.344;6.550;2023-06-26T07:57:59;9.82;;;3.15;;
75739;SDS011;64357;51.344;6.550;2023-06-26T08:00:26;7.47;;;2.50;;
75739;SDS011;64357;51.344;6.550;2023-06-26T08:02:51;7.88;;;2.30;;
75739;SDS011;64357;51.344;6.550;2023-06-26T08:05:19;9.75;;;3.33;;
75739;SDS011;64357;51.344;6.550;2023-06-26T08:07:44;8.05;;;2.22;;
75739;SDS011;64357;51.344;6.550;2023-06-26T08:10:10;11.00;;;2.20;;
75739;SDS011;64357;51.344;6.550;2023-06-26T08:12:37;8.50;;;2.30;;
75739;SDS011;64357;51.344;6.550;2023-06-26T08:15:10;5.65;;;2.03;;
75739;SDS011;64357;51.344;6.550;2023-06-26T08:17:36;13.60;;;2.53;;
75739;SDS011;64357;51.344;6.550;2023-06-26T08:20:05;5.35;;;1.92;;
75739;SDS011;64357;51.344;6.550;2023-06-26T08:22:32;7.47;;;2.30;;
75739;SDS011;64357;51.344;6.550;2023-06-26T08:25:01;9.05;;;2.80;;
75739;SDS011;64357;51.344;6.550;2023-06-26T08:27:28;13.48;;;2.72;;
75739;SDS011;64357;51.344;6.550;2023-06-26T08:29:53;9.77;;;2.65;;
75739;SDS011;64357;51.344;6.550;2023-06-26T08:32:26;11.50;;;2.83;;
75739;SDS011;64357;51.344;6.550;2023-06-26T08:34:51;10.50;;;2.67;;
75739;SDS011;64357;51.344;6.550;2023-06-26T08:37:20;7.20;;;2.20;;
75739;SDS011;64357;51.344;6.550;2023-06-26T08:39:45;8.82;;;2.38;;
75739;SDS011;64357;51.344;6.550;2023-06-26T08:42:11;8.43;;;2.60;;
75739;SDS011;64357;51.344;6.550;2023-06-26T08:44:36;6.93;;;2.33;;
75739;SDS011;64357;51.344;6.550;2023-06-26T08:47:04;7.53;;;3.00;;
75739;SDS011;64357;51.344;6.550;2023-06-26T08:49:46;5.88;;;2.03;;
75739;SDS011;64357;51.344;6.550;2023-06-26T08:55:01;3.50;;;1.67;;
75739;SDS011;64357;51.344;6.550;2023-06-26T08:57:33;7.53;;;2.10;;
75739;SDS011;64357;51.344;6.550;2023-06-26T08:59:59;8.30;;;2.65;;
75739;SDS011;64357;51.344;6.550;2023-06-26T09:02:25;8.95;;;2.67;;
75739;SDS011;64357;51.344;6.550;2023-06-26T09:04:50;10.07;;;2.35;;
75739;SDS011;64357;51.344;6.550;2023-06-26T09:07:17;7.68;;;2.25;;
75739;SDS011;64357;51.344;6.550;2023-06-26T09:09:42;6.77;;;2.43;;
75739;SDS011;64357;51.344;6.550;2023-06-26T09:12:10;9.50;;;2.85;;
75739;SDS011;64357;51.344;6.550;2023-06-26T09:14:38;7.07;;;2.78;;
75739;SDS011;64357;51.344;6.550;2023-06-26T09:17:06;7.97;;;2.38;;
75739;SDS011;64357;51.344;6.550;2023-06-26T09:19:31;8.73;;;3.05;;
75739;SDS011;64357;51.344;6.550;2023-06-26T09:22:00;8.73;;;2.78;;
75739;SDS011;64357;51.344;6.550;2023-06-26T09:24:28;11.10;;;2.55;;
75739;SDS011;64357;51.344;6.550;2023-06-26T09:26:54;11.05;;;2.90;;
75739;SDS011;64357;51.344;6.550;2023-06-26T09:29:25;11.70;;;2.83;;
75739;SDS011;64357;51.344;6.550;2023-06-26T09:31:52;9.70;;;2.47;;
75739;SDS011;64357;51.344;6.550;2023-06-26T09:34:20;9.52;;;3.15;;
75739;SDS011;64357;51.344;6.550;2023-06-26T09:36:45;6.50;;;2.50;;
75739;SDS011;64357;51.344;6.550;2023-06-26T09:39:14;6.57;;;2.13;;
75739;SDS011;64357;51.344;6.550;2023-06-26T09:41:43;5.57;;;1.80;;
75739;SDS011;64357;51.344;6.550;2023-06-26T09:44:14;9.75;;;2.10;;
75739;SDS011;64357;51.344;6.550;2023-06-26T09:46:40;7.40;;;2.60;;
75739;SDS011;64357;51.344;6.550;2023-06-26T09:49:06;5.47;;;2.17;;
75739;SDS011;64357;51.344;6.550;2023-06-26T09:51:36;5.38;;;2.17;;
75739;SDS011;64357;51.344;6.550;2023-06-26T09:54:03;7.25;;;2.65;;
75739;SDS011;64357;51.344;6.550;2023-06-26T09:56:29;6.50;;;2.20;;
75739;SDS011;64357;51.344;6.550;2023-06-26T09:58:58;7.78;;;2.13;;
75739;SDS011;64357;51.344;6.550;2023-06-26T10:01:33;6.97;;;2.33;;
75739;SDS011;64357;51.344;6.550;2023-06-26T10:04:10;5.15;;;1.90;;
75739;SDS011;64357;51.344;6.550;2023-06-26T10:06:41;6.27;;;1.70;;
75739;SDS011;64357;51.344;6.550;2023-06-26T10:09:11;9.45;;;2.22;;
75739;SDS011;64357;51.344;6.550;2023-06-26T10:11:45;4.22;;;1.83;;
75739;SDS011;64357;51.344;6.550;2023-06-26T10:14:24;6.00;;;2.10;;
75739;SDS011;64357;51.344;6.550;2023-06-26T10:16:51;5.35;;;1.80;;
75739;SDS011;64357;51.344;6.550;2023-06-26T10:19:26;4.40;;;1.70;;
75739;SDS011;64357;51.344;6.550;2023-06-26T10:21:53;4.85;;;1.45;;
75739;SDS011;64357;51.344;6.550;2023-06-26T10:24:26;12.20;;;2.28;;
75739;SDS011;64357;51.344;6.550;2023-06-26T10:27:04;6.47;;;1.70;;
75739;SDS011;64357;51.344;6.550;2023-06-26T10:29:33;4.07;;;2.05;;
75739;SDS011;64357;51.344;6.550;2023-06-26T10:32:11;5.20;;;1.60;;
75739;SDS011;64357;51.344;6.550;2023-06-26T10:34:44;4.03;;;1.48;;
75739;SDS011;64357;51.344;6.550;2023-06-26T10:37:13;6.22;;;2.22;;
75739;SDS011;64357;51.344;6.550;2023-06-26T10:39:51;4.30;;;1.30;;
75739;SDS011;64357;51.344;6.550;2023-06-26T10:42:28;7.20;;;1.65;;
75739;SDS011;64357;51.344;6.550;2023-06-26T10:45:08;5.25;;;1.50;;
75739;SDS011;64357;51.344;6.550;2023-06-26T10:47:54;3.72;;;1.23;;
75739;SDS011;64357;51.344;6.550;2023-06-26T10:50:27;3.42;;;1.35;;
75739;SDS011;64357;51.344;6.550;2023-06-26T10:55:47;4.75;;;1.33;;
75739;SDS011;64357;51.344;6.550;2023-06-26T11:06:36;2.55;;;1.40;;
75739;SDS011;64357;51.344;6.550;2023-06-26T11:14:17;7.82;;;1.33;;
75739;SDS011;64357;51.344;6.550;2023-06-26T11:16:43;7.22;;;1.40;;
75739;SDS011;64357;51.344;6.550;2023-06-26T11:19:09;4.25;;;1.25;;
75739;SDS011;64357;51.344;6.550;2023-06-26T11:21:35;3.08;;;1.40;;
75739;SDS011;64357;51.344;6.550;2023-06-26T11:24:07;3.08;;;1.20;;
75739;SDS011;64357;51.344;6.550;2023-06-26T11:29:08;5.90;;;1.50;;
75739;SDS011;64357;51.344;6.550;2023-06-26T11:31:38;2.97;;;0.90;;
75739;SDS011;64357;51.344;6.550;2023-06-26T11:34:05;2.58;;;0.95;;
75739;SDS011;64357;51.344;6.550;2023-06-26T11:36:35;5.13;;;1.58;;
75739;SDS011;64357;51.344;6.550;2023-06-26T11:39:06;5.70;;;0.90;;
75739;SDS011;64357;51.344;6.550;2023-06-26T11:41:35;2.78;;;0.88;;
75739;SDS011;64357;51.344;6.550;2023-06-26T11:46:27;1.70;;;0.63;;
75739;SDS011;64357;51.344;6.550;2023-06-26T11:48:53;2.83;;;0.98;;
75739;SDS011;64357;51.344;6.550;2023-06-26T11:51:21;5.88;;;1.20;;
75739;SDS011;64357;51.344;6.550;2023-06-26T11:53:49;5.75;;;1.00;;
75739;SDS011;64357;51.344;6.550;2023-06-26T11:56:16;1.75;;;0.50;;
75739;SDS011;64357;51.344;6.550;2023-06-26T12:01:30;2.85;;;0.68;;
75739;SDS011;64357;51.344;6.550;2023-06-26T12:04:02;1.95;;;0.88;;
75739;SDS011;64357;51.344;6.550;2023-06-26T12:06:31;2.38;;;0.60;;
75739;SDS011;64357;51.344;6.550;2023-06-26T12:08:58;4.85;;;1.05;;
75739;SDS011;64357;51.344;6.550;2023-06-26T12:11:27;8.95;;;1.52;;
75739;SDS011;64357;51.344;6.550;2023-06-26T12:13:56;3.08;;;0.88;;
75739;SDS011;64357;51.344;6.550;2023-06-26T12:16:24;7.72;;;1.00;;
75739;SDS011;64357;51.344;6.550;2023-06-26T12:18:50;3.13;;;0.77;;
75739;SDS011;64357;51.344;6.550;2023-06-26T12:21:44;3.63;;;0.63;;
75739;SDS011;64357;51.344;6.550;2023-06-26T12:24:14;4.32;;;1.25;;
75739;SDS011;64357;51.344;6.550;2023-06-26T12:26:49;3.90;;;0.82;;
75739;SDS011;64357;51.344;6.550;2023-06-26T12:29:24;2.75;;;0.77;;
75739;SDS011;64357;51.344;6.550;2023-06-26T12:31:56;3.97;;;1.00;;
75739;SDS011;64357;51.344;6.550;2023-06-26T12:34:28;1.17;;;0.63;;
75739;SDS011;64357;51.344;6.550;2023-06-26T12:37:00;2.42;;;0.60;;
75739;SDS011;64357;51.344;6.550;2023-06-26T12:39:44;2.10;;;1.00;;
75739;SDS011;64357;51.344;6.550;2023-06-26T12:42:20;2.42;;;0.77;;
75739;SDS011;64357;51.344;6.550;2023-06-26T12:44:49;2.85;;;0.80;;
75739;SDS011;64357;51.344;6.550;2023-06-26T12:47:15;5.95;;;0.95;;
75739;SDS011;64357;51.344;6.550;2023-06-26T12:49:45;4.50;;;0.80;;
75739;SDS011;64357;51.344;6.550;2023-06-26T12:52:15;2.05;;;0.52;;
75739;SDS011;64357;51.344;6.550;2023-06-26T12:54:45;2.38;;;1.00;;
75739;SDS011;64357;51.344;6.550;2023-06-26T12:57:12;4.55;;;0.88;;
75739;SDS011;64357;51.344;6.550;2023-06-26T12:59:39;4.25;;;0.93;;
75739;SDS011;64357;51.344;6.550;2023-06-26T13:02:09;2.90;;;0.70;;
75739;SDS011;64357;51.344;6.550;2023-06-26T13:04:36;3.97;;;0.90;;
75739;SDS011;64357;51.344;6.550;2023-06-26T13:07:05;4.90;;;1.25;;
75739;SDS011;64357;51.344;6.550;2023-06-26T13:09:34;2.35;;;0.70;;
75739;SDS011;64357;51.344;6.550;2023-06-26T13:12:05;4.22;;;0.77;;
75739;SDS011;64357;51.344;6.550;2023-06-26T13:14:37;2.65;;;0.60;;
75739;SDS011;64357;51.344;6.550;2023-06-26T13:17:12;2.15;;;0.95;;
75739;SDS011;64357;51.344;6.550;2023-06-26T13:19:45;6.13;;;1.00;;
75739;SDS011;64357;51.344;6.550;2023-06-26T13:22:11;5.78;;;0.90;;
75739;SDS011;64357;51.344;6.550;2023-06-26T13:24:36;5.47;;;1.83;;
75739;SDS011;64357;51.344;6.550;2023-06-26T13:27:01;1.48;;;0.68;;
75739;SDS011;64357;51.344;6.550;2023-06-26T13:29:33;2.88;;;0.70;;
75739;SDS011;64357;51.344;6.550;2023-06-26T13:32:05;3.70;;;0.73;;
75739;SDS011;64357;51.344;6.550;2023-06-26T13:34:35;3.33;;;0.70;;
75739;SDS011;64357;51.344;6.550;2023-06-26T13:37:01;1.30;;;0.50;;
75739;SDS011;64357;51.344;6.550;2023-06-26T13:39:32;1.88;;;0.70;;
75739;SDS011;64357;51.344;6.550;2023-06-26T13:41:58;3.33;;;1.17;;
75739;SDS011;64357;51.344;6.550;2023-06-26T13:49:27;2.08;;;0.55;;
75739;SDS011;64357;51.344;6.550;2023-06-26T13:54:21;7.07;;;1.27;;
75739;SDS011;64357;51.344;6.550;2023-06-26T13:59:49;2.67;;;1.10;;
75739;SDS011;64357;51.344;6.550;2023-06-26T14:02:24;3.22;;;1.10;;
75739;SDS011;64357;51.344;6.550;2023-06-26T14:04:52;2.03;;;0.77;;
75739;SDS011;64357;51.344;6.550;2023-06-26T14:10:19;5.07;;;1.10;;
75739;SDS011;64357;51.344;6.550;2023-06-26T14:12:59;3.75;;;0.82;;
75739;SDS011;64357;51.344;6.550;2023-06-26T14:15:50;1.65;;;0.60;;
75739;SDS011;64357;51.344;6.550;2023-06-26T14:18:28;2.03;;;0.80;;
75739;SDS011;64357;51.344;6.550;2023-06-26T14:21:18;2.55;;;0.88;;
75739;SDS011;64357;51.344;6.550;2023-06-26T14:23:46;4.38;;;0.80;;
75739;SDS011;64357;51.344;6.550;2023-06-26T14:26:20;3.40;;;0.85;;
75739;SDS011;64357;51.344;6.550;2023-06-26T14:29:01;4.80;;;0.90;;
75739;SDS011;64357;51.344;6.550;2023-06-26T14:31:35;4.32;;;1.00;;
75739;SDS011;64357;51.344;6.550;2023-06-26T14:34:21;4.05;;;1.00;;
75739;SDS011;64357;51.344;6.550;2023-06-26T14:36:54;8.35;;;1.42;;
75739;SDS011;64357;51.344;6.550;2023-06-26T14:39:32;1.73;;;0.80;;
75739;SDS011;64357;51.344;6.550;2023-06-26T14:48:28;1.88;;;0.70;;
75739;SDS011;64357;51.344;6.550;2023-06-26T14:51:22;1.65;;;0.75;;
75739;SDS011;64357;51.344;6.550;2023-06-26T14:53:53;3.42;;;1.00;;
75739;SDS011;64357;51.344;6.550;2023-06-26T14:56:35;2.25;;;0.60;;
75739;SDS011;64357;51.344;6.550;2023-06-26T14:59:40;3.10;;;0.77;;
75739;SDS011;64357;51.344;6.550;2023-06-26T15:02:26;3.13;;;1.00;;
75739;SDS011;64357;51.344;6.550;2023-06-26T15:05:00;2.05;;;0.63;;
75739;SDS011;64357;51.344;6.550;2023-06-26T15:07:39;1.90;;;0.70;;
75739;SDS011;64357;51.344;6.550;2023-06-26T15:10:05;3.28;;;0.70;;
75739;SDS011;64357;51.344;6.550;2023-06-26T15:12:37;3.78;;;0.80;;
75739;SDS011;64357;51.344;6.550;2023-06-26T15:15:12;7.55;;;0.93;;
75739;SDS011;64357;51.344;6.550;2023-06-26T15:17:37;3.00;;;0.73;;
75739;SDS011;64357;51.344;6.550;2023-06-26T15:20:03;2.97;;;0.70;;
75739;SDS011;64357;51.344;6.550;2023-06-26T15:22:29;1.20;;;0.40;;
75739;SDS011;64357;51.344;6.550;2023-06-26T15:24:55;2.88;;;0.70;;
75739;SDS011;64357;51.344;6.550;2023-06-26T15:27:23;3.90;;;1.38;;
75739;SDS011;64357;51.344;6.550;2023-06-26T15:29:51;5.25;;;1.27;;
75739;SDS011;64357;51.344;6.550;2023-06-26T15:32:17;2.55;;;0.68;;
75739;SDS011;64357;51.344;6.550;2023-06-26T15:34:45;1.80;;;0.68;;
75739;SDS011;64357;51.344;6.550;2023-06-26T15:37:12;3.67;;;1.02;;
75739;SDS011;64357;51.344;6.550;2023-06-26T15:39:48;2.63;;;0.63;;
75739;SDS011;64357;51.344;6.550;2023-06-26T15:42:18;4.50;;;1.05;;
75739;SDS011;64357;51.344;6.550;2023-06-26T15:44:44;2.38;;;0.50;;
75739;SDS011;64357;51.344;6.550;2023-06-26T15:47:09;1.92;;;0.80;;
75739;SDS011;64357;51.344;6.550;2023-06-26T15:49:37;2.05;;;0.60;;
75739;SDS011;64357;51.344;6.550;2023-06-26T15:52:03;3.80;;;0.90;;
75739;SDS011;64357;51.344;6.550;2023-06-26T15:54:41;2.53;;;0.70;;